sensor_id;sensor_type;location;lat;lon;timestamp;P1;durP1;ratioP1;P2;durP2;ratioP2
22060;SDS011;11194;48.092;-1.382;2022-11-20T00:01:30;10.48;;;6.65;;
22060;SDS011;11194;48.092;-1.382;2022-11-20T00:03:57;10.02;;;6.68;;
22060;SDS011;11194;48.092;-1.382;2022-11-20T00:06:23;8.63;;;6.00;;
22060;SDS011;11194;48.092;-1.382;2022-11-20T00:08:50;10.75;;;6.13;;
22060;SDS011;11194;48.092;-1.382;2022-11-20T00:11:17;10.45;;;5.45;;
22060;SDS011;11194;48.092;-1.382;2022-11-20T00:13:44;10.50;;;6.95;;
22060;SDS011;11194;48.092;-1.382;2022-11-20T00:16:11;10.32;;;6.13;;
22060;SDS011;11194;48.092;-1.382;2022-11-20T00:18:37;10.75;;;7.18;;
22060;SDS011;11194;48.092;-1.382;2022-11-20T00:21:07;9.55;;;6.15;;
22060;SDS011;11194;48.092;-1.382;2022-11-20T00:23:35;10.13;;;6.57;;
22060;SDS011;11194;48.092;-1.382;2022-11-20T00:26:11;10.02;;;6.90;;
22060;SDS011;11194;48.092;-1.382;2022-11-20T00:28:37;12.50;;;7.18;;
22060;SDS011;11194;48.092;-1.382;2022-11-20T00:31:07;13.50;;;7.18;;
22060;SDS011;11194;48.092;-1.382;2022-11-20T00:33:33;12.27;;;7.20;;
22060;SDS011;11194;48.092;-1.382;2022-11-20T00:36:06;12.75;;;7.65;;
22060;SDS011;11194;48.092;-1.382;2022-11-20T00:38:33;10.25;;;6.38;;
22060;SDS011;11194;48.092;-1.382;2022-11-20T00:41:00;9.95;;;6.13;;
22060;SDS011;11194;48.092;-1.382;2022-11-20T00:43:26;10.20;;;6.78;;
22060;SDS011;11194;48.092;-1.382;2022-11-20T00:46:06;10.75;;;6.28;;
22060;SDS011;11194;48.092;-1.382;2022-11-20T00:48:32;12.82;;;6.90;;
22060;SDS011;11194;48.092;-1.382;2022-11-20T00:50:58;10.07;;;6.18;;
22060;SDS011;11194;48.092;-1.382;2022-11-20T00:53:24;12.10;;;6.75;;
22060;SDS011;11194;48.092;-1.382;2022-11-20T00:55:58;13.52;;;6.63;;
22060;SDS011;11194;48.092;-1.382;2022-11-20T00:58:25;14.73;;;8.32;;
22060;SDS011;11194;48.092;-1.382;2022-11-20T01:00:51;11.43;;;7.18;;
22060;SDS011;11194;48.092;-1.382;2022-11-20T01:03:17;10.65;;;6.03;;
22060;SDS011;11194;48.092;-1.382;2022-11-20T01:05:47;7.72;;;6.03;;
22060;SDS011;11194;48.092;-1.382;2022-11-20T01:08:13;11.18;;;6.68;;
22060;SDS011;11194;48.092;-1.382;2022-11-20T01:10:39;8.18;;;5.95;;
22060;SDS011;11194;48.092;-1.382;2022-11-20T01:13:05;12.20;;;6.30;;
22060;SDS011;11194;48.092;-1.382;2022-11-20T01:15:50;13.98;;;7.95;;
22060;SDS011;11194;48.092;-1.382;2022-11-20T01:18:16;13.45;;;6.85;;
22060;SDS011;11194;48.092;-1.382;2022-11-20T01:20:42;15.30;;;9.95;;
22060;SDS011;11194;48.092;-1.382;2022-11-20T01:23:08;15.52;;;8.93;;
22060;SDS011;11194;48.092;-1.382;2022-11-20T01:25:34;15.80;;;9.20;;
22060;SDS011;11194;48.092;-1.382;2022-11-20T01:28:00;11.98;;;6.63;;
22060;SDS011;11194;48.092;-1.382;2022-11-20T01:30:26;14.10;;;8.00;;
22060;SDS011;11194;48.092;-1.382;2022-11-20T01:32:52;17.20;;;8.13;;
22060;SDS011;11194;48.092;-1.382;2022-11-20T01:35:20;13.98;;;8.00;;
22060;SDS011;11194;48.092;-1.382;2022-11-20T01:37:46;12.65;;;7.97;;
22060;SDS011;11194;48.092;-1.382;2022-11-20T01:40:12;12.32;;;7.93;;
22060;SDS011;11194;48.092;-1.382;2022-11-20T01:42:43;14.52;;;9.38;;
22060;SDS011;11194;48.092;-1.382;2022-11-20T01:48:13;14.32;;;7.05;;
22060;SDS011;11194;48.092;-1.382;2022-11-20T01:50:39;14.50;;;8.85;;
22060;SDS011;11194;48.092;-1.382;2022-11-20T01:53:08;14.15;;;8.95;;
22060;SDS011;11194;48.092;-1.382;2022-11-20T01:55:36;17.52;;;9.98;;
22060;SDS011;11194;48.092;-1.382;2022-11-20T01:58:02;19.92;;;10.85;;
22060;SDS011;11194;48.092;-1.382;2022-11-20T02:00:29;21.60;;;10.90;;
22060;SDS011;11194;48.092;-1.382;2022-11-20T02:03:29;15.15;;;9.95;;
22060;SDS011;11194;48.092;-1.382;2022-11-20T02:05:51;24.17;;;13.50;;
22060;SDS011;11194;48.092;-1.382;2022-11-20T02:08:19;19.23;;;12.00;;
22060;SDS011;11194;48.092;-1.382;2022-11-20T02:10:45;16.95;;;10.90;;
22060;SDS011;11194;48.092;-1.382;2022-11-20T02:13:11;15.00;;;9.95;;
22060;SDS011;11194;48.092;-1.382;2022-11-20T02:15:56;20.40;;;11.35;;
22060;SDS011;11194;48.092;-1.382;2022-11-20T02:18:22;20.15;;;13.23;;
22060;SDS011;11194;48.092;-1.382;2022-11-20T02:20:50;20.73;;;13.40;;
22060;SDS011;11194;48.092;-1.382;2022-11-20T02:23:24;21.33;;;12.95;;
22060;SDS011;11194;48.092;-1.382;2022-11-20T02:25:53;17.73;;;11.68;;
22060;SDS011;11194;48.092;-1.382;2022-11-20T02:28:20;21.17;;;11.32;;
22060;SDS011;11194;48.092;-1.382;2022-11-20T05:03:05;15.57;;;8.25;;
22060;SDS011;11194;48.092;-1.382;2022-11-20T05:05:32;15.38;;;8.50;;
22060;SDS011;11194;48.092;-1.382;2022-11-20T05:07:59;17.65;;;8.90;;
22060;SDS011;11194;48.092;-1.382;2022-11-20T05:10:25;12.00;;;8.18;;
22060;SDS011;11194;48.092;-1.382;2022-11-20T05:12:51;12.75;;;7.80;;
22060;SDS011;11194;48.092;-1.382;2022-11-20T05:15:18;14.93;;;8.65;;
22060;SDS011;11194;48.092;-1.382;2022-11-20T05:17:48;10.27;;;7.35;;
22060;SDS011;11194;48.092;-1.382;2022-11-20T05:20:14;14.85;;;8.45;;
22060;SDS011;11194;48.092;-1.382;2022-11-20T05:22:40;13.18;;;7.75;;
22060;SDS011;11194;48.092;-1.382;2022-11-20T05:25:06;14.80;;;8.02;;
22060;SDS011;11194;48.092;-1.382;2022-11-20T05:27:32;11.30;;;7.63;;
22060;SDS011;11194;48.092;-1.382;2022-11-20T05:29:58;12.65;;;7.60;;
22060;SDS011;11194;48.092;-1.382;2022-11-20T05:32:24;14.63;;;6.82;;
22060;SDS011;11194;48.092;-1.382;2022-11-20T05:34:50;13.18;;;7.93;;
22060;SDS011;11194;48.092;-1.382;2022-11-20T05:37:17;13.95;;;7.82;;
22060;SDS011;11194;48.092;-1.382;2022-11-20T05:39:43;13.32;;;7.28;;
22060;SDS011;11194;48.092;-1.382;2022-11-20T05:42:09;9.77;;;7.15;;
22060;SDS011;11194;48.092;-1.382;2022-11-20T05:44:54;14.27;;;7.60;;
22060;SDS011;11194;48.092;-1.382;2022-11-20T05:47:20;11.15;;;7.45;;
22060;SDS011;11194;48.092;-1.382;2022-11-20T05:49:46;14.90;;;8.27;;
22060;SDS011;11194;48.092;-1.382;2022-11-20T05:52:12;13.25;;;8.48;;
22060;SDS011;11194;48.092;-1.382;2022-11-20T05:54:38;16.42;;;8.48;;
22060;SDS011;11194;48.092;-1.382;2022-11-20T05:57:04;11.35;;;8.07;;
22060;SDS011;11194;48.092;-1.382;2022-11-20T05:59:30;12.68;;;7.97;;
22060;SDS011;11194;48.092;-1.382;2022-11-20T06:01:56;16.67;;;7.95;;
22060;SDS011;11194;48.092;-1.382;2022-11-20T06:04:22;11.07;;;7.25;;
22060;SDS011;11194;48.092;-1.382;2022-11-20T06:06:48;12.25;;;7.55;;
22060;SDS011;11194;48.092;-1.382;2022-11-20T06:09:14;12.27;;;7.82;;
22060;SDS011;11194;48.092;-1.382;2022-11-20T06:11:40;13.48;;;7.53;;
22060;SDS011;11194;48.092;-1.382;2022-11-20T06:14:06;11.30;;;6.93;;
22060;SDS011;11194;48.092;-1.382;2022-11-20T06:16:32;11.05;;;7.13;;
22060;SDS011;11194;48.092;-1.382;2022-11-20T06:18:58;10.50;;;7.05;;
22060;SDS011;11194;48.092;-1.382;2022-11-20T06:21:24;9.73;;;6.78;;
22060;SDS011;11194;48.092;-1.382;2022-11-20T06:23:51;8.40;;;5.90;;
22060;SDS011;11194;48.092;-1.382;2022-11-20T06:26:23;9.93;;;5.95;;
22060;SDS011;11194;48.092;-1.382;2022-11-20T06:28:49;10.60;;;6.63;;
22060;SDS011;11194;48.092;-1.382;2022-11-20T06:31:16;9.75;;;6.38;;
22060;SDS011;11194;48.092;-1.382;2022-11-20T06:33:43;9.18;;;6.82;;
22060;SDS011;11194;48.092;-1.382;2022-11-20T06:36:10;10.63;;;7.60;;
22060;SDS011;11194;48.092;-1.382;2022-11-20T06:38:37;8.43;;;5.45;;
22060;SDS011;11194;48.092;-1.382;2022-11-20T06:41:07;6.57;;;4.88;;
22060;SDS011;11194;48.092;-1.382;2022-11-20T06:43:33;6.70;;;4.60;;
22060;SDS011;11194;48.092;-1.382;2022-11-20T06:45:59;5.88;;;4.53;;
22060;SDS011;11194;48.092;-1.382;2022-11-20T06:48:25;4.75;;;3.33;;
22060;SDS011;11194;48.092;-1.382;2022-11-20T06:50:52;4.82;;;3.33;;
22060;SDS011;11194;48.092;-1.382;2022-11-20T06:53:18;6.40;;;4.10;;
22060;SDS011;11194;48.092;-1.382;2022-11-20T06:55:45;5.55;;;3.85;;
22060;SDS011;11194;48.092;-1.382;2022-11-20T06:58:11;4.82;;;3.28;;
22060;SDS011;11194;48.092;-1.382;2022-11-20T07:00:38;4.53;;;2.95;;
22060;SDS011;11194;48.092;-1.382;2022-11-20T07:03:04;4.00;;;2.80;;
22060;SDS011;11194;48.092;-1.382;2022-11-20T07:05:30;11.45;;;6.00;;
22060;SDS011;11194;48.092;-1.382;2022-11-20T07:07:56;7.57;;;4.45;;
22060;SDS011;11194;48.092;-1.382;2022-11-20T07:10:23;6.20;;;3.70;;
22060;SDS011;11194;48.092;-1.382;2022-11-20T07:12:52;5.63;;;4.07;;
22060;SDS011;11194;48.092;-1.382;2022-11-20T07:15:19;5.07;;;4.00;;
22060;SDS011;11194;48.092;-1.382;2022-11-20T07:17:45;5.88;;;3.60;;
22060;SDS011;11194;48.092;-1.382;2022-11-20T07:20:12;5.63;;;3.60;;
22060;SDS011;11194;48.092;-1.382;2022-11-20T07:22:38;4.65;;;3.10;;
22060;SDS011;11194;48.092;-1.382;2022-11-20T07:25:04;3.67;;;3.05;;
22060;SDS011;11194;48.092;-1.382;2022-11-20T07:27:30;3.22;;;2.90;;
22060;SDS011;11194;48.092;-1.382;2022-11-20T07:29:57;4.70;;;3.00;;
22060;SDS011;11194;48.092;-1.382;2022-11-20T07:32:23;4.28;;;3.20;;
22060;SDS011;11194;48.092;-1.382;2022-11-20T07:34:49;4.25;;;3.00;;
22060;SDS011;11194;48.092;-1.382;2022-11-20T07:37:15;6.32;;;2.75;;
22060;SDS011;11194;48.092;-1.382;2022-11-20T07:39:41;5.30;;;3.30;;
22060;SDS011;11194;48.092;-1.382;2022-11-20T07:42:07;4.07;;;3.22;;
22060;SDS011;11194;48.092;-1.382;2022-11-20T07:44:34;5.13;;;3.53;;
22060;SDS011;11194;48.092;-1.382;2022-11-20T07:47:00;4.95;;;3.90;;
22060;SDS011;11194;48.092;-1.382;2022-11-20T07:49:26;4.88;;;3.55;;
22060;SDS011;11194;48.092;-1.382;2022-11-20T07:51:52;4.35;;;3.17;;
22060;SDS011;11194;48.092;-1.382;2022-11-20T07:54:19;5.53;;;3.60;;
22060;SDS011;11194;48.092;-1.382;2022-11-20T07:56:45;4.95;;;3.47;;
22060;SDS011;11194;48.092;-1.382;2022-11-20T07:59:11;4.35;;;3.45;;
22060;SDS011;11194;48.092;-1.382;2022-11-20T08:01:37;5.78;;;4.57;;
22060;SDS011;11194;48.092;-1.382;2022-11-20T08:04:04;9.30;;;6.53;;
22060;SDS011;11194;48.092;-1.382;2022-11-20T08:06:30;11.18;;;8.40;;
22060;SDS011;11194;48.092;-1.382;2022-11-20T08:08:56;9.27;;;7.45;;
22060;SDS011;11194;48.092;-1.382;2022-11-20T08:11:22;11.07;;;8.48;;
22060;SDS011;11194;48.092;-1.382;2022-11-20T08:14:07;8.55;;;6.82;;
22060;SDS011;11194;48.092;-1.382;2022-11-20T08:19:05;7.15;;;6.18;;
22060;SDS011;11194;48.092;-1.382;2022-11-20T08:21:31;6.22;;;4.25;;
22060;SDS011;11194;48.092;-1.382;2022-11-20T08:23:58;5.45;;;4.10;;
22060;SDS011;11194;48.092;-1.382;2022-11-20T08:26:24;5.25;;;4.32;;
22060;SDS011;11194;48.092;-1.382;2022-11-20T08:28:54;11.50;;;8.13;;
22060;SDS011;11194;48.092;-1.382;2022-11-20T08:31:20;12.93;;;8.88;;
22060;SDS011;11194;48.092;-1.382;2022-11-20T08:33:46;20.13;;;15.32;;
22060;SDS011;11194;48.092;-1.382;2022-11-20T08:36:15;15.98;;;11.55;;
22060;SDS011;11194;48.092;-1.382;2022-11-20T08:38:41;11.93;;;8.48;;
22060;SDS011;11194;48.092;-1.382;2022-11-20T08:41:07;10.65;;;5.65;;
22060;SDS011;11194;48.092;-1.382;2022-11-20T08:43:55;7.45;;;4.35;;
22060;SDS011;11194;48.092;-1.382;2022-11-20T08:46:22;8.15;;;4.72;;
22060;SDS011;11194;48.092;-1.382;2022-11-20T08:48:48;9.05;;;5.15;;
22060;SDS011;11194;48.092;-1.382;2022-11-20T08:51:15;9.10;;;6.50;;
22060;SDS011;11194;48.092;-1.382;2022-11-20T08:53:41;12.85;;;6.55;;
22060;SDS011;11194;48.092;-1.382;2022-11-20T08:56:08;12.45;;;6.05;;
22060;SDS011;11194;48.092;-1.382;2022-11-20T08:58:34;9.35;;;6.68;;
22060;SDS011;11194;48.092;-1.382;2022-11-20T09:01:01;9.30;;;5.60;;
22060;SDS011;11194;48.092;-1.382;2022-11-20T09:03:27;8.23;;;5.38;;
22060;SDS011;11194;48.092;-1.382;2022-11-20T09:05:57;7.93;;;5.30;;
22060;SDS011;11194;48.092;-1.382;2022-11-20T09:08:24;8.38;;;5.30;;
22060;SDS011;11194;48.092;-1.382;2022-11-20T09:10:53;9.02;;;5.28;;
22060;SDS011;11194;48.092;-1.382;2022-11-20T09:13:22;7.38;;;5.13;;
22060;SDS011;11194;48.092;-1.382;2022-11-20T09:15:55;9.98;;;5.85;;
22060;SDS011;11194;48.092;-1.382;2022-11-20T09:18:21;9.60;;;5.68;;
22060;SDS011;11194;48.092;-1.382;2022-11-20T09:20:48;10.52;;;5.32;;
22060;SDS011;11194;48.092;-1.382;2022-11-20T09:23:14;10.50;;;5.53;;
22060;SDS011;11194;48.092;-1.382;2022-11-20T09:25:40;11.23;;;5.60;;
22060;SDS011;11194;48.092;-1.382;2022-11-20T09:28:07;10.88;;;5.55;;
22060;SDS011;11194;48.092;-1.382;2022-11-20T09:30:33;10.48;;;5.80;;
22060;SDS011;11194;48.092;-1.382;2022-11-20T09:32:59;14.50;;;5.80;;
22060;SDS011;11194;48.092;-1.382;2022-11-20T09:35:25;12.68;;;5.90;;
22060;SDS011;11194;48.092;-1.382;2022-11-20T09:37:51;14.10;;;5.55;;
22060;SDS011;11194;48.092;-1.382;2022-11-20T09:40:21;19.40;;;5.25;;
22060;SDS011;11194;48.092;-1.382;2022-11-20T09:42:57;18.55;;;5.65;;
22060;SDS011;11194;48.092;-1.382;2022-11-20T09:55:22;23.65;;;5.78;;
22060;SDS011;11194;48.092;-1.382;2022-11-20T09:57:50;16.55;;;5.07;;
22060;SDS011;11194;48.092;-1.382;2022-11-20T10:00:16;18.67;;;4.97;;
22060;SDS011;11194;48.092;-1.382;2022-11-20T10:02:49;16.00;;;4.30;;
22060;SDS011;11194;48.092;-1.382;2022-11-20T10:05:24;21.30;;;4.68;;
22060;SDS011;11194;48.092;-1.382;2022-11-20T10:08:07;16.63;;;4.90;;
22060;SDS011;11194;48.092;-1.382;2022-11-20T10:10:37;15.30;;;4.40;;
22060;SDS011;11194;48.092;-1.382;2022-11-20T10:25:46;13.82;;;4.45;;
22060;SDS011;11194;48.092;-1.382;2022-11-20T10:28:30;15.60;;;4.70;;
22060;SDS011;11194;48.092;-1.382;2022-11-20T10:31:02;16.40;;;4.35;;
22060;SDS011;11194;48.092;-1.382;2022-11-20T10:33:33;19.90;;;4.63;;
22060;SDS011;11194;48.092;-1.382;2022-11-20T10:38:34;23.33;;;5.10;;
22060;SDS011;11194;48.092;-1.382;2022-11-20T10:41:02;22.27;;;4.78;;
22060;SDS011;11194;48.092;-1.382;2022-11-20T10:43:47;20.10;;;4.72;;
22060;SDS011;11194;48.092;-1.382;2022-11-20T10:46:18;16.65;;;4.40;;
22060;SDS011;11194;48.092;-1.382;2022-11-20T10:48:47;18.98;;;5.53;;
22060;SDS011;11194;48.092;-1.382;2022-11-20T10:56:40;19.63;;;5.72;;
22060;SDS011;11194;48.092;-1.382;2022-11-20T11:01:46;17.65;;;5.13;;
22060;SDS011;11194;48.092;-1.382;2022-11-20T11:04:26;20.60;;;5.22;;
22060;SDS011;11194;48.092;-1.382;2022-11-20T11:06:58;23.70;;;5.65;;
22060;SDS011;11194;48.092;-1.382;2022-11-20T11:09:30;21.85;;;5.63;;
22060;SDS011;11194;48.092;-1.382;2022-11-20T11:11:57;23.63;;;4.70;;
22060;SDS011;11194;48.092;-1.382;2022-11-20T11:14:23;21.23;;;6.07;;
22060;SDS011;11194;48.092;-1.382;2022-11-20T11:16:54;18.42;;;4.53;;
22060;SDS011;11194;48.092;-1.382;2022-11-20T11:19:20;20.10;;;4.53;;
22060;SDS011;11194;48.092;-1.382;2022-11-20T11:21:50;19.63;;;5.07;;
22060;SDS011;11194;48.092;-1.382;2022-11-20T11:24:22;17.38;;;5.00;;
22060;SDS011;11194;48.092;-1.382;2022-11-20T11:26:52;22.15;;;5.18;;
22060;SDS011;11194;48.092;-1.382;2022-11-20T11:29:20;21.08;;;5.15;;
22060;SDS011;11194;48.092;-1.382;2022-11-20T11:31:46;17.40;;;4.97;;
22060;SDS011;11194;48.092;-1.382;2022-11-20T11:34:16;19.63;;;5.20;;
22060;SDS011;11194;48.092;-1.382;2022-11-20T11:36:49;20.65;;;5.90;;
22060;SDS011;11194;48.092;-1.382;2022-11-20T11:39:18;19.73;;;4.90;;
22060;SDS011;11194;48.092;-1.382;2022-11-20T11:41:45;19.63;;;5.38;;
22060;SDS011;11194;48.092;-1.382;2022-11-20T11:44:21;18.65;;;4.85;;
22060;SDS011;11194;48.092;-1.382;2022-11-20T11:52:43;20.75;;;4.90;;
22060;SDS011;11194;48.092;-1.382;2022-11-20T11:55:22;13.93;;;4.07;;
22060;SDS011;11194;48.092;-1.382;2022-11-20T12:01:00;20.25;;;4.30;;
22060;SDS011;11194;48.092;-1.382;2022-11-20T12:03:33;14.52;;;4.28;;
22060;SDS011;11194;48.092;-1.382;2022-11-20T12:06:01;17.75;;;3.92;;
22060;SDS011;11194;48.092;-1.382;2022-11-20T12:08:36;17.90;;;4.70;;
22060;SDS011;11194;48.092;-1.382;2022-11-20T12:11:11;17.75;;;3.95;;
22060;SDS011;11194;48.092;-1.382;2022-11-20T12:16:09;18.60;;;4.57;;
22060;SDS011;11194;48.092;-1.382;2022-11-20T12:18:38;16.98;;;4.38;;
22060;SDS011;11194;48.092;-1.382;2022-11-20T12:26:35;16.60;;;4.20;;
22060;SDS011;11194;48.092;-1.382;2022-11-20T12:29:16;16.80;;;4.15;;
22060;SDS011;11194;48.092;-1.382;2022-11-20T12:31:51;12.13;;;4.43;;
22060;SDS011;11194;48.092;-1.382;2022-11-20T12:39:45;18.73;;;3.78;;
22060;SDS011;11194;48.092;-1.382;2022-11-20T12:53:07;12.48;;;3.78;;
22060;SDS011;11194;48.092;-1.382;2022-11-20T12:55:42;15.60;;;4.53;;
22060;SDS011;11194;48.092;-1.382;2022-11-20T12:58:15;13.05;;;3.33;;
22060;SDS011;11194;48.092;-1.382;2022-11-20T13:00:47;13.60;;;3.72;;
22060;SDS011;11194;48.092;-1.382;2022-11-20T13:03:37;12.40;;;2.85;;
22060;SDS011;11194;48.092;-1.382;2022-11-20T13:06:08;11.38;;;3.50;;
22060;SDS011;11194;48.092;-1.382;2022-11-20T13:08:36;15.43;;;3.45;;
22060;SDS011;11194;48.092;-1.382;2022-11-20T13:18:53;12.95;;;3.25;;
22060;SDS011;11194;48.092;-1.382;2022-11-20T13:21:34;12.05;;;3.67;;
22060;SDS011;11194;48.092;-1.382;2022-11-20T13:24:04;16.48;;;3.50;;
22060;SDS011;11194;48.092;-1.382;2022-11-20T13:26:31;12.88;;;3.85;;
22060;SDS011;11194;48.092;-1.382;2022-11-20T13:29:19;14.68;;;3.42;;
22060;SDS011;11194;48.092;-1.382;2022-11-20T13:31:48;11.98;;;3.20;;
22060;SDS011;11194;48.092;-1.382;2022-11-20T13:34:26;15.60;;;3.10;;
22060;SDS011;11194;48.092;-1.382;2022-11-20T13:36:54;14.60;;;4.18;;
22060;SDS011;11194;48.092;-1.382;2022-11-20T13:39:27;20.05;;;4.55;;
22060;SDS011;11194;48.092;-1.382;2022-11-20T13:41:54;18.08;;;4.05;;
22060;SDS011;11194;48.092;-1.382;2022-11-20T13:44:38;18.05;;;3.40;;
22060;SDS011;11194;48.092;-1.382;2022-11-20T13:47:04;15.20;;;3.42;;
22060;SDS011;11194;48.092;-1.382;2022-11-20T13:49:45;18.35;;;4.22;;
22060;SDS011;11194;48.092;-1.382;2022-11-20T13:55:07;15.77;;;4.03;;
22060;SDS011;11194;48.092;-1.382;2022-11-20T13:57:40;17.48;;;3.90;;
22060;SDS011;11194;48.092;-1.382;2022-11-20T14:02:35;18.02;;;4.10;;
22060;SDS011;11194;48.092;-1.382;2022-11-20T14:05:01;14.07;;;3.75;;
22060;SDS011;11194;48.092;-1.382;2022-11-20T14:07:34;15.57;;;4.32;;
22060;SDS011;11194;48.092;-1.382;2022-11-20T14:10:01;18.40;;;3.63;;
22060;SDS011;11194;48.092;-1.382;2022-11-20T14:12:29;13.70;;;3.95;;
22060;SDS011;11194;48.092;-1.382;2022-11-20T14:14:55;19.80;;;4.22;;
22060;SDS011;11194;48.092;-1.382;2022-11-20T14:19:49;13.27;;;3.22;;
22060;SDS011;11194;48.092;-1.382;2022-11-20T14:22:24;17.25;;;3.45;;
22060;SDS011;11194;48.092;-1.382;2022-11-20T14:27:28;15.98;;;4.18;;
22060;SDS011;11194;48.092;-1.382;2022-11-20T14:29:55;13.40;;;4.07;;
22060;SDS011;11194;48.092;-1.382;2022-11-20T14:32:22;14.95;;;3.50;;
22060;SDS011;11194;48.092;-1.382;2022-11-20T14:34:49;14.65;;;4.05;;
22060;SDS011;11194;48.092;-1.382;2022-11-20T14:37:26;17.70;;;4.30;;
22060;SDS011;11194;48.092;-1.382;2022-11-20T14:39:56;13.77;;;4.28;;
22060;SDS011;11194;48.092;-1.382;2022-11-20T14:42:27;21.95;;;4.88;;
22060;SDS011;11194;48.092;-1.382;2022-11-20T14:44:56;15.45;;;4.60;;
22060;SDS011;11194;48.092;-1.382;2022-11-20T14:47:29;15.75;;;4.28;;
22060;SDS011;11194;48.092;-1.382;2022-11-20T14:49:57;18.60;;;5.53;;
22060;SDS011;11194;48.092;-1.382;2022-11-20T14:52:24;15.20;;;5.75;;
22060;SDS011;11194;48.092;-1.382;2022-11-20T14:54:52;21.25;;;7.25;;
22060;SDS011;11194;48.092;-1.382;2022-11-20T14:59:47;14.52;;;4.53;;
22060;SDS011;11194;48.092;-1.382;2022-11-20T15:02:13;17.58;;;4.63;;
22060;SDS011;11194;48.092;-1.382;2022-11-20T15:04:46;18.88;;;4.95;;
22060;SDS011;11194;48.092;-1.382;2022-11-20T15:07:22;19.13;;;4.70;;
22060;SDS011;11194;48.092;-1.382;2022-11-20T15:09:58;15.55;;;4.82;;
22060;SDS011;11194;48.092;-1.382;2022-11-20T15:12:25;20.05;;;5.22;;
22060;SDS011;11194;48.092;-1.382;2022-11-20T15:14:51;18.85;;;4.47;;
22060;SDS011;11194;48.092;-1.382;2022-11-20T15:17:17;15.27;;;4.60;;
22060;SDS011;11194;48.092;-1.382;2022-11-20T15:19:43;20.17;;;4.57;;
22060;SDS011;11194;48.092;-1.382;2022-11-20T15:22:11;19.40;;;4.05;;
22060;SDS011;11194;48.092;-1.382;2022-11-20T15:24:41;14.70;;;4.03;;
22060;SDS011;11194;48.092;-1.382;2022-11-20T15:27:07;19.95;;;4.80;;
22060;SDS011;11194;48.092;-1.382;2022-11-20T15:29:33;15.38;;;4.43;;
22060;SDS011;11194;48.092;-1.382;2022-11-20T15:32:00;22.17;;;4.68;;
22060;SDS011;11194;48.092;-1.382;2022-11-20T15:34:26;16.20;;;4.35;;
22060;SDS011;11194;48.092;-1.382;2022-11-20T15:36:52;13.25;;;4.45;;
22060;SDS011;11194;48.092;-1.382;2022-11-20T15:39:19;12.32;;;4.05;;
22060;SDS011;11194;48.092;-1.382;2022-11-20T15:41:45;13.45;;;4.85;;
22060;SDS011;11194;48.092;-1.382;2022-11-20T15:44:12;17.98;;;4.50;;
22060;SDS011;11194;48.092;-1.382;2022-11-20T15:46:41;10.63;;;3.72;;
22060;SDS011;11194;48.092;-1.382;2022-11-20T15:49:13;17.40;;;4.30;;
22060;SDS011;11194;48.092;-1.382;2022-11-20T15:51:41;14.88;;;3.95;;
22060;SDS011;11194;48.092;-1.382;2022-11-20T15:56:40;18.55;;;5.18;;
22060;SDS011;11194;48.092;-1.382;2022-11-20T15:59:07;33.45;;;19.67;;
22060;SDS011;11194;48.092;-1.382;2022-11-20T16:01:33;14.23;;;4.22;;
22060;SDS011;11194;48.092;-1.382;2022-11-20T16:03:59;13.93;;;5.85;;
22060;SDS011;11194;48.092;-1.382;2022-11-20T16:06:25;16.88;;;5.20;;
22060;SDS011;11194;48.092;-1.382;2022-11-20T16:08:51;21.52;;;4.85;;
22060;SDS011;11194;48.092;-1.382;2022-11-20T16:11:17;18.55;;;5.63;;
22060;SDS011;11194;48.092;-1.382;2022-11-20T16:13:44;23.90;;;10.13;;
22060;SDS011;11194;48.092;-1.382;2022-11-20T16:16:48;16.58;;;4.72;;
22060;SDS011;11194;48.092;-1.382;2022-11-20T16:19:15;19.73;;;6.50;;
22060;SDS011;11194;48.092;-1.382;2022-11-20T16:21:42;17.02;;;4.35;;
22060;SDS011;11194;48.092;-1.382;2022-11-20T16:24:09;13.15;;;3.83;;
22060;SDS011;11194;48.092;-1.382;2022-11-20T16:26:36;21.27;;;6.55;;
22060;SDS011;11194;48.092;-1.382;2022-11-20T16:29:03;19.05;;;7.72;;
22060;SDS011;11194;48.092;-1.382;2022-11-20T16:31:30;17.77;;;5.93;;
22060;SDS011;11194;48.092;-1.382;2022-11-20T16:33:56;23.67;;;5.78;;
22060;SDS011;11194;48.092;-1.382;2022-11-20T16:36:23;20.90;;;6.38;;
22060;SDS011;11194;48.092;-1.382;2022-11-20T16:38:53;17.60;;;4.82;;
22060;SDS011;11194;48.092;-1.382;2022-11-20T16:41:19;18.15;;;5.25;;
22060;SDS011;11194;48.092;-1.382;2022-11-20T16:43:46;33.00;;;20.73;;
22060;SDS011;11194;48.092;-1.382;2022-11-20T16:46:17;25.00;;;12.02;;
22060;SDS011;11194;48.092;-1.382;2022-11-20T16:48:43;15.63;;;5.40;;
22060;SDS011;11194;48.092;-1.382;2022-11-20T16:51:10;20.08;;;6.35;;
22060;SDS011;11194;48.092;-1.382;2022-11-20T16:53:36;22.20;;;9.35;;
22060;SDS011;11194;48.092;-1.382;2022-11-20T16:56:09;19.98;;;6.80;;
22060;SDS011;11194;48.092;-1.382;2022-11-20T16:58:35;21.75;;;8.38;;
22060;SDS011;11194;48.092;-1.382;2022-11-20T17:01:05;19.05;;;7.60;;
22060;SDS011;11194;48.092;-1.382;2022-11-20T17:03:31;23.30;;;6.85;;
22060;SDS011;11194;48.092;-1.382;2022-11-20T17:05:57;20.77;;;7.45;;
22060;SDS011;11194;48.092;-1.382;2022-11-20T17:08:23;18.17;;;6.10;;
22060;SDS011;11194;48.092;-1.382;2022-11-20T17:10:49;18.88;;;6.57;;
22060;SDS011;11194;48.092;-1.382;2022-11-20T17:13:15;18.85;;;5.85;;
22060;SDS011;11194;48.092;-1.382;2022-11-20T17:15:41;20.48;;;5.80;;
22060;SDS011;11194;48.092;-1.382;2022-11-20T17:18:08;20.85;;;6.25;;
22060;SDS011;11194;48.092;-1.382;2022-11-20T17:20:34;20.67;;;10.45;;
22060;SDS011;11194;48.092;-1.382;2022-11-20T17:23:00;22.25;;;6.50;;
22060;SDS011;11194;48.092;-1.382;2022-11-20T17:25:26;17.25;;;6.18;;
22060;SDS011;11194;48.092;-1.382;2022-11-20T17:27:53;23.70;;;12.85;;
22060;SDS011;11194;48.092;-1.382;2022-11-20T17:30:19;15.88;;;7.00;;
22060;SDS011;11194;48.092;-1.382;2022-11-20T17:32:45;23.92;;;8.60;;
22060;SDS011;11194;48.092;-1.382;2022-11-20T17:35:11;35.38;;;16.25;;
22060;SDS011;11194;48.092;-1.382;2022-11-20T17:37:38;21.08;;;9.20;;
22060;SDS011;11194;48.092;-1.382;2022-11-20T17:40:04;14.88;;;7.57;;
22060;SDS011;11194;48.092;-1.382;2022-11-20T17:42:30;27.48;;;13.20;;
22060;SDS011;11194;48.092;-1.382;2022-11-20T17:45:00;22.08;;;6.50;;
22060;SDS011;11194;48.092;-1.382;2022-11-20T17:47:26;18.02;;;5.97;;
22060;SDS011;11194;48.092;-1.382;2022-11-20T17:49:52;19.42;;;5.80;;
22060;SDS011;11194;48.092;-1.382;2022-11-20T17:52:28;21.33;;;6.15;;
22060;SDS011;11194;48.092;-1.382;2022-11-20T17:54:54;16.85;;;5.40;;
22060;SDS011;11194;48.092;-1.382;2022-11-20T17:57:22;17.98;;;6.78;;
22060;SDS011;11194;48.092;-1.382;2022-11-20T18:00:07;12.52;;;5.40;;
22060;SDS011;11194;48.092;-1.382;2022-11-20T18:02:35;14.20;;;6.20;;
22060;SDS011;11194;48.092;-1.382;2022-11-20T18:05:01;16.73;;;7.78;;
22060;SDS011;11194;48.092;-1.382;2022-11-20T18:07:27;21.02;;;6.88;;
22060;SDS011;11194;48.092;-1.382;2022-11-20T18:09:53;15.38;;;5.90;;
22060;SDS011;11194;48.092;-1.382;2022-11-20T18:12:19;15.90;;;5.80;;
22060;SDS011;11194;48.092;-1.382;2022-11-20T18:14:45;17.38;;;5.53;;
22060;SDS011;11194;48.092;-1.382;2022-11-20T18:17:12;14.52;;;4.95;;
22060;SDS011;11194;48.092;-1.382;2022-11-20T18:19:40;16.65;;;5.28;;
22060;SDS011;11194;48.092;-1.382;2022-11-20T18:22:06;19.02;;;5.68;;
22060;SDS011;11194;48.092;-1.382;2022-11-20T18:24:32;15.23;;;4.88;;
22060;SDS011;11194;48.092;-1.382;2022-11-20T18:27:00;14.80;;;5.60;;
22060;SDS011;11194;48.092;-1.382;2022-11-20T18:29:26;11.48;;;4.55;;
22060;SDS011;11194;48.092;-1.382;2022-11-20T18:31:53;15.80;;;5.78;;
22060;SDS011;11194;48.092;-1.382;2022-11-20T18:34:19;14.25;;;4.80;;
22060;SDS011;11194;48.092;-1.382;2022-11-20T18:36:45;18.80;;;4.93;;
22060;SDS011;11194;48.092;-1.382;2022-11-20T18:39:11;40.13;;;22.70;;